createdAt,value
2018-05-27T00:01:04.035Z,17.82
2018-05-27T00:03:31.603Z,17.79
2018-05-27T00:05:59.173Z,17.81
2018-05-27T00:08:26.726Z,17.78
2018-05-27T00:10:54.732Z,17.74
2018-05-27T00:13:22.267Z,17.72
2018-05-27T00:15:49.943Z,17.70
2018-05-27T00:18:17.663Z,17.70
2018-05-27T00:20:45.196Z,17.65
2018-05-27T00:23:12.740Z,17.61
2018-05-27T00:25:40.294Z,17.57
2018-05-27T00:28:07.840Z,17.58
2018-05-27T00:30:35.385Z,17.55
2018-05-27T00:33:02.941Z,17.50
2018-05-27T00:35:30.480Z,17.46
2018-05-27T00:37:58.048Z,17.43
2018-05-27T00:40:25.624Z,17.38
2018-05-27T00:42:53.158Z,17.35
2018-05-27T00:45:20.686Z,17.31
2018-05-27T00:47:48.268Z,17.29
2018-05-27T00:50:15.824Z,17.26
2018-05-27T00:52:43.397Z,17.19
2018-05-27T00:55:10.984Z,17.18
2018-05-27T00:57:38.529Z,17.15
2018-05-27T01:00:06.105Z,17.14
2018-05-27T01:02:33.820Z,17.11
2018-05-27T01:05:01.361Z,17.09
2018-05-27T01:07:28.888Z,17.09
2018-05-27T01:09:56.468Z,17.09
2018-05-27T01:12:24.013Z,17.08
2018-05-27T01:14:51.558Z,17.07
2018-05-27T01:17:19.141Z,17.08
2018-05-27T01:19:46.693Z,17.07
2018-05-27T01:22:14.223Z,17.06
2018-05-27T01:24:41.808Z,17.07
2018-05-27T01:27:09.358Z,17.08
2018-05-27T01:29:36.883Z,17.08
2018-05-27T01:32:04.786Z,17.08
2018-05-27T01:34:32.333Z,17.03
2018-05-27T01:36:59.912Z,17.01
2018-05-27T01:39:27.648Z,17.00
2018-05-27T01:41:55.213Z,16.98
2018-05-27T01:44:22.757Z,16.96
2018-05-27T01:46:50.333Z,16.95
2018-05-27T01:49:17.874Z,16.95
2018-05-27T01:51:45.402Z,16.94
2018-05-27T01:54:13.124Z,16.91
2018-05-27T01:56:40.663Z,16.92
2018-05-27T01:59:08.191Z,16.88
2018-05-27T02:01:35.780Z,16.89
2018-05-27T02:04:03.319Z,16.90
2018-05-27T02:06:30.856Z,16.98
2018-05-27T02:08:58.400Z,16.97
2018-05-27T02:11:25.929Z,16.96
2018-05-27T02:13:53.660Z,16.95
2018-05-27T02:16:21.199Z,16.99
2018-05-27T02:18:48.731Z,17.00
2018-05-27T02:21:16.309Z,17.04
2018-05-27T02:23:43.848Z,17.04
2018-05-27T02:26:11.383Z,17.04
2018-05-27T02:28:39.063Z,17.07
2018-05-27T02:31:06.614Z,17.08
2018-05-27T02:33:34.152Z,17.13
2018-05-27T02:36:01.880Z,17.13
2018-05-27T02:38:29.425Z,17.15
2018-05-27T02:40:56.981Z,17.14
2018-05-27T02:43:24.641Z,17.08
2018-05-27T02:45:52.218Z,17.05
2018-05-27T02:48:19.761Z,17.05
2018-05-27T02:50:47.559Z,17.07
2018-05-27T02:53:15.112Z,17.13
2018-05-27T02:55:42.677Z,17.18
2018-05-27T02:58:10.570Z,17.18
2018-05-27T03:00:38.110Z,17.22
2018-05-27T03:03:05.653Z,17.25
2018-05-27T03:05:33.232Z,17.24
2018-05-27T03:08:00.761Z,17.25
2018-05-27T03:10:28.300Z,17.30
2018-05-27T03:12:55.875Z,17.33
2018-05-27T03:15:23.427Z,17.37
2018-05-27T03:17:50.977Z,17.42
2018-05-27T03:20:19.451Z,17.64
2018-05-27T03:22:46.982Z,18.34
2018-05-27T03:25:14.530Z,19.37
2018-05-27T03:27:42.097Z,20.08
2018-05-27T03:30:09.633Z,20.28
2018-05-27T03:32:37.169Z,20.17
2018-05-27T03:35:04.844Z,19.95
2018-05-27T03:37:32.405Z,19.74
2018-05-27T03:39:59.939Z,19.56
2018-05-27T03:42:27.662Z,19.43
2018-05-27T03:44:55.208Z,19.36
2018-05-27T03:47:22.760Z,19.37
2018-05-27T03:49:50.665Z,19.43
2018-05-27T03:52:18.204Z,19.53
2018-05-27T03:54:45.732Z,19.66
2018-05-27T03:57:13.906Z,19.76
2018-05-27T03:59:41.452Z,19.92
2018-05-27T04:02:08.991Z,20.10
2018-05-27T04:04:59.458Z,20.24
2018-05-27T04:07:38.551Z,20.45
2018-05-27T04:10:06.120Z,20.72
2018-05-27T04:12:33.656Z,21.12
2018-05-27T04:15:01.195Z,21.85
2018-05-27T04:17:28.940Z,22.39
2018-05-27T04:19:56.482Z,22.93
2018-05-27T04:22:24.030Z,24.40
2018-05-27T04:24:51.786Z,27.00
2018-05-27T04:27:19.326Z,29.64
2018-05-27T04:29:46.854Z,31.69
2018-05-27T04:32:14.451Z,33.55
2018-05-27T04:34:41.988Z,34.67
2018-05-27T04:37:09.538Z,36.05
2018-05-27T04:39:37.123Z,37.15
2018-05-27T04:42:04.654Z,37.68
2018-05-27T04:44:32.193Z,38.24
2018-05-27T04:46:59.884Z,38.63
2018-05-27T04:49:27.425Z,38.95
2018-05-27T04:51:54.960Z,38.70
2018-05-27T04:54:22.688Z,39.31
2018-05-27T04:56:50.229Z,39.78
2018-05-27T04:59:17.769Z,39.28
2018-05-27T05:01:45.334Z,39.93
2018-05-27T05:04:12.912Z,40.21
2018-05-27T05:06:40.477Z,39.92
2018-05-27T05:09:08.012Z,39.05
2018-05-27T05:11:35.560Z,37.45
2018-05-27T05:14:03.476Z,36.44
2018-05-27T05:16:31.034Z,36.05
2018-05-27T05:18:58.631Z,35.52
2018-05-27T05:21:26.355Z,36.65
2018-05-27T05:23:53.949Z,36.40
2018-05-27T05:26:21.503Z,35.82
2018-05-27T05:28:49.080Z,35.58
2018-05-27T05:31:16.620Z,35.16
2018-05-27T05:33:44.156Z,33.49
2018-05-27T05:36:11.882Z,31.87
2018-05-27T05:38:39.431Z,31.10
2018-05-27T05:41:06.974Z,30.86
2018-05-27T05:43:34.885Z,30.41
2018-05-27T05:46:02.432Z,29.70
2018-05-27T05:48:29.971Z,29.31
2018-05-27T05:50:57.644Z,29.44
2018-05-27T05:53:25.179Z,28.75
2018-05-27T05:55:52.713Z,27.92
2018-05-27T05:58:20.445Z,27.37
2018-05-27T06:00:48.001Z,27.20
2018-05-27T06:03:15.537Z,27.62
2018-05-27T06:05:43.442Z,27.39
2018-05-27T06:08:10.987Z,27.71
2018-05-27T06:10:38.526Z,27.74
2018-05-27T06:13:06.097Z,27.85
2018-05-27T06:15:33.659Z,27.91
2018-05-27T06:18:01.213Z,27.91
2018-05-27T06:20:28.783Z,27.96
2018-05-27T06:22:56.355Z,28.24
2018-05-27T06:25:23.898Z,28.73
2018-05-27T06:27:51.485Z,29.03
2018-05-27T06:30:19.030Z,29.27
2018-05-27T06:32:46.589Z,29.10
2018-05-27T06:35:14.489Z,29.25
2018-05-27T06:37:42.032Z,29.48
2018-05-27T06:40:09.577Z,29.08
2018-05-27T06:42:37.182Z,28.91
2018-05-27T06:45:04.723Z,28.90
2018-05-27T06:47:32.272Z,29.24
2018-05-27T06:50:00.163Z,29.38
2018-05-27T06:52:27.696Z,29.36
2018-05-27T06:54:55.242Z,29.46
2018-05-27T06:57:22.923Z,28.93
2018-05-27T06:59:50.462Z,28.83
2018-05-27T07:02:17.998Z,28.71
2018-05-27T07:04:45.743Z,28.82
2018-05-27T07:07:13.274Z,28.82
2018-05-27T07:09:40.835Z,28.60
2018-05-27T07:12:08.550Z,28.34
2018-05-27T07:14:36.117Z,28.09
2018-05-27T07:17:03.667Z,27.89
2018-05-27T07:19:31.284Z,27.64
2018-05-27T07:21:58.818Z,27.51
2018-05-27T07:24:26.378Z,27.52
2018-05-27T07:26:53.959Z,27.05
2018-05-27T07:29:21.504Z,26.95
2018-05-27T07:31:49.040Z,26.84
2018-05-27T07:34:27.260Z,26.39
2018-05-27T07:36:54.817Z,26.91
2018-05-27T07:39:22.372Z,26.83
2018-05-27T07:41:49.976Z,26.50
2018-05-27T07:44:17.536Z,26.39
2018-05-27T07:46:45.090Z,25.91
2018-05-27T07:49:12.679Z,26.02
2018-05-27T07:51:40.236Z,25.76
2018-05-27T07:54:07.783Z,25.62
2018-05-27T07:56:35.392Z,25.48
2018-05-27T07:59:02.936Z,25.54
2018-05-27T08:01:30.498Z,25.10
2018-05-27T08:03:58.101Z,24.80
2018-05-27T08:06:25.665Z,25.08
2018-05-27T08:08:53.215Z,25.35
2018-05-27T08:11:21.098Z,24.77
2018-05-27T08:13:48.731Z,24.39
2018-05-27T08:16:16.277Z,24.05
2018-05-27T08:18:43.954Z,24.13
2018-05-27T08:21:11.487Z,23.91
2018-05-27T08:23:39.053Z,23.84
2018-05-27T08:26:06.792Z,23.89
2018-05-27T08:28:34.351Z,23.83
2018-05-27T08:31:01.918Z,23.52
2018-05-27T08:33:29.596Z,23.56
2018-05-27T08:35:57.148Z,23.46
2018-05-27T08:38:24.695Z,23.35
2018-05-27T08:40:53.024Z,23.73
2018-05-27T08:43:20.563Z,23.75
2018-05-27T08:45:48.115Z,23.72
2018-05-27T08:48:16.029Z,23.99
2018-05-27T08:50:43.580Z,24.23
2018-05-27T08:53:11.137Z,24.10
2018-05-27T08:55:38.728Z,24.27
2018-05-27T08:58:06.277Z,24.44
2018-05-27T09:00:33.813Z,24.49
2018-05-27T09:03:01.396Z,24.50
2018-05-27T09:05:28.943Z,24.15
2018-05-27T09:07:56.481Z,23.88
2018-05-27T09:10:24.157Z,23.78
2018-05-27T09:12:51.689Z,24.08
2018-05-27T09:15:19.332Z,24.38
2018-05-27T09:17:46.924Z,24.37
2018-05-27T09:20:14.470Z,23.95
2018-05-27T09:22:42.005Z,23.63
2018-05-27T09:25:09.858Z,23.75
2018-05-27T09:27:37.377Z,23.74
2018-05-27T09:30:04.948Z,23.74
2018-05-27T09:32:32.624Z,23.46
2018-05-27T09:35:00.181Z,23.29
2018-05-27T09:37:27.733Z,23.13
2018-05-27T09:39:55.354Z,23.35
2018-05-27T09:42:22.887Z,23.47
2018-05-27T09:44:50.419Z,23.62
2018-05-27T09:47:18.098Z,24.17
2018-05-27T09:49:45.650Z,24.65
2018-05-27T09:52:13.199Z,24.59
2018-05-27T09:54:40.779Z,24.29
2018-05-27T09:57:08.333Z,24.01
2018-05-27T09:59:35.884Z,24.01
2018-05-27T10:02:03.494Z,24.07
2018-05-27T10:04:31.060Z,23.71
2018-05-27T10:06:58.608Z,24.02
2018-05-27T10:09:26.161Z,24.53
2018-05-27T10:11:53.700Z,24.61
2018-05-27T10:14:21.279Z,24.89
2018-05-27T10:16:48.828Z,24.80
2018-05-27T10:19:16.392Z,24.80
2018-05-27T10:21:43.957Z,24.43
2018-05-27T10:24:11.508Z,24.25
2018-05-27T10:26:39.087Z,24.03
2018-05-27T10:29:06.798Z,23.95
2018-05-27T10:31:34.385Z,23.93
2018-05-27T10:34:01.933Z,23.70
2018-05-27T10:36:29.606Z,23.55
2018-05-27T10:38:57.134Z,23.35
2018-05-27T10:41:24.676Z,23.33
2018-05-27T10:43:52.362Z,23.31
2018-05-27T10:46:19.904Z,23.07
2018-05-27T10:48:47.443Z,22.85
2018-05-27T10:51:15.354Z,22.67
2018-05-27T10:53:42.939Z,22.57
2018-05-27T10:56:10.478Z,22.52
2018-05-27T10:58:38.145Z,22.53
2018-05-27T11:01:05.708Z,22.63
2018-05-27T11:03:33.262Z,22.69
2018-05-27T11:06:01.169Z,23.12
2018-05-27T11:08:28.731Z,23.65
2018-05-27T11:10:56.292Z,23.78
2018-05-27T11:13:23.867Z,23.73
2018-05-27T11:15:51.404Z,23.69
2018-05-27T11:18:18.953Z,24.12
2018-05-27T11:20:46.593Z,24.58
2018-05-27T11:23:14.134Z,25.06
2018-05-27T11:25:41.671Z,25.15
2018-05-27T11:28:09.266Z,24.79
2018-05-27T11:30:36.822Z,24.40
2018-05-27T11:33:04.362Z,24.85
2018-05-27T11:35:31.972Z,25.43
2018-05-27T11:37:59.543Z,25.84
2018-05-27T11:40:27.098Z,26.03
2018-05-27T11:42:54.993Z,26.08
2018-05-27T11:45:22.542Z,25.65
2018-05-27T11:47:50.101Z,25.20
2018-05-27T11:50:17.688Z,24.64
2018-05-27T11:52:45.243Z,24.24
2018-05-27T11:55:12.776Z,24.00
2018-05-27T11:57:40.352Z,24.20
2018-05-27T12:00:07.912Z,24.27
2018-05-27T12:02:35.453Z,24.49
2018-05-27T12:05:03.024Z,24.43
2018-05-27T12:07:30.582Z,24.79
2018-05-27T12:09:58.135Z,25.03
2018-05-27T12:12:25.874Z,25.01
2018-05-27T12:14:53.447Z,24.85
2018-05-27T12:17:20.994Z,24.79
2018-05-27T12:19:48.682Z,24.56
2018-05-27T12:22:16.241Z,24.56
2018-05-27T12:24:43.806Z,24.74
2018-05-27T12:27:11.371Z,24.77
2018-05-27T12:29:38.950Z,24.85
2018-05-27T12:32:06.500Z,25.01
2018-05-27T12:34:34.089Z,24.94
2018-05-27T12:37:01.652Z,24.92
2018-05-27T12:39:29.214Z,25.09
2018-05-27T12:41:56.784Z,25.17
2018-05-27T12:44:24.401Z,25.14
2018-05-27T12:46:51.953Z,25.22
2018-05-27T12:49:19.537Z,25.15
2018-05-27T12:51:47.084Z,24.80
2018-05-27T12:54:14.618Z,25.05
2018-05-27T12:56:42.361Z,25.14
2018-05-27T12:59:09.910Z,25.16
2018-05-27T13:01:37.479Z,25.02
2018-05-27T13:04:05.223Z,25.21
2018-05-27T13:06:32.818Z,25.10
2018-05-27T13:09:00.383Z,24.99
2018-05-27T13:11:28.110Z,24.72
2018-05-27T13:13:55.647Z,24.86
2018-05-27T13:16:23.228Z,24.83
2018-05-27T13:18:50.809Z,24.68
2018-05-27T13:21:18.357Z,24.89
2018-05-27T13:23:45.946Z,25.13
2018-05-27T13:26:13.671Z,25.20
2018-05-27T13:28:41.238Z,25.24
2018-05-27T13:31:08.771Z,24.81
2018-05-27T13:33:36.490Z,24.56
2018-05-27T13:36:04.077Z,24.54
2018-05-27T13:38:31.651Z,24.51
2018-05-27T13:40:59.404Z,24.51
2018-05-27T13:43:26.972Z,24.62
2018-05-27T13:45:54.551Z,24.54
2018-05-27T13:48:22.122Z,24.48
2018-05-27T13:50:49.710Z,24.45
2018-05-27T13:53:17.259Z,24.22
2018-05-27T13:55:44.833Z,24.14
2018-05-27T13:58:12.397Z,24.33
2018-05-27T14:00:39.956Z,24.42
2018-05-27T14:03:07.878Z,24.50
2018-05-27T14:05:35.455Z,24.62
2018-05-27T14:08:03.014Z,24.76
2018-05-27T14:10:30.580Z,24.54
2018-05-27T14:12:58.137Z,24.49
2018-05-27T14:15:25.873Z,24.28
2018-05-27T14:17:53.429Z,24.19
2018-05-27T14:20:21.016Z,24.35
2018-05-27T14:22:48.928Z,24.06
2018-05-27T14:25:16.496Z,24.19
2018-05-27T14:27:44.040Z,24.22
2018-05-27T14:30:11.792Z,24.26
2018-05-27T14:32:39.348Z,24.22
2018-05-27T14:35:06.895Z,23.98
2018-05-27T14:37:34.468Z,24.01
2018-05-27T14:40:02.018Z,23.93
2018-05-27T14:42:29.570Z,23.97
2018-05-27T14:44:57.257Z,23.90
2018-05-27T14:47:24.827Z,23.93
2018-05-27T14:49:52.374Z,24.04
2018-05-27T14:52:19.971Z,24.20
2018-05-27T14:54:47.532Z,24.42
2018-05-27T14:57:15.604Z,24.77
2018-05-27T14:59:43.340Z,25.01
2018-05-27T15:02:10.903Z,25.08
2018-05-27T15:04:38.444Z,25.12
2018-05-27T15:07:06.035Z,25.17
2018-05-27T15:09:33.596Z,25.44
2018-05-27T15:12:01.154Z,25.23
2018-05-27T15:14:28.754Z,25.31
2018-05-27T15:16:56.297Z,25.19
2018-05-27T15:19:23.869Z,25.08
2018-05-27T15:21:51.770Z,24.88
2018-05-27T15:24:19.349Z,25.00
2018-05-27T15:26:46.910Z,24.74
2018-05-27T15:29:14.495Z,24.70
2018-05-27T15:31:42.069Z,24.23
2018-05-27T15:34:09.617Z,24.17
2018-05-27T15:36:37.208Z,24.16
2018-05-27T15:39:05.677Z,24.08
2018-05-27T15:41:33.217Z,23.93
2018-05-27T15:44:00.816Z,23.92
2018-05-27T15:46:28.369Z,23.92
2018-05-27T15:48:55.928Z,23.78
2018-05-27T15:51:23.519Z,23.59
2018-05-27T15:53:51.067Z,23.42
2018-05-27T15:56:18.670Z,23.26
2018-05-27T15:58:46.269Z,23.22
2018-05-27T16:01:13.828Z,23.02
2018-05-27T16:03:41.385Z,22.96
2018-05-27T16:06:09.113Z,22.86
2018-05-27T16:08:36.694Z,22.73
2018-05-27T16:11:04.284Z,22.70
2018-05-27T16:13:32.224Z,22.59
2018-05-27T16:15:59.783Z,22.63
2018-05-27T16:18:27.356Z,22.63
2018-05-27T16:20:55.089Z,22.68
2018-05-27T16:23:22.651Z,22.64
2018-05-27T16:25:50.220Z,22.63
2018-05-27T16:28:17.955Z,22.60
2018-05-27T16:30:45.544Z,22.67
2018-05-27T16:33:13.129Z,22.77
2018-05-27T16:35:40.838Z,22.73
2018-05-27T16:38:08.420Z,22.53
2018-05-27T16:40:36.003Z,22.49
2018-05-27T16:43:04.106Z,22.48
2018-05-27T16:45:31.678Z,22.47
2018-05-27T16:47:59.252Z,22.36
2018-05-27T16:50:26.969Z,22.36
2018-05-27T16:52:54.561Z,22.29
2018-05-27T16:55:22.113Z,22.25
2018-05-27T16:57:50.075Z,22.05
2018-05-27T17:00:17.629Z,21.99
2018-05-27T17:02:45.193Z,21.90
2018-05-27T17:05:12.781Z,21.74
2018-05-27T17:07:40.332Z,21.66
2018-05-27T17:10:07.918Z,21.56
2018-05-27T17:12:35.512Z,21.43
2018-05-27T17:15:03.046Z,21.37
2018-05-27T17:17:30.602Z,21.30
2018-05-27T17:19:58.204Z,21.28
2018-05-27T17:22:25.766Z,21.18
2018-05-27T17:24:53.306Z,21.05
2018-05-27T17:27:21.060Z,21.02
2018-05-27T17:29:48.608Z,20.93
2018-05-27T17:32:16.218Z,20.88
2018-05-27T17:34:43.814Z,20.79
2018-05-27T17:37:11.422Z,20.71
2018-05-27T17:39:38.988Z,20.63
2018-05-27T17:42:06.568Z,20.59
2018-05-27T17:44:34.119Z,20.50
2018-05-27T17:47:01.684Z,20.47
2018-05-27T17:49:29.278Z,20.42
2018-05-27T17:51:56.873Z,20.33
2018-05-27T17:54:24.487Z,20.27
2018-05-27T17:56:52.114Z,20.23
2018-05-27T17:59:19.666Z,20.01
2018-05-27T18:01:47.267Z,20.01
2018-05-27T18:04:15.275Z,19.93
2018-05-27T18:06:42.795Z,19.86
2018-05-27T18:09:10.348Z,19.72
2018-05-27T18:11:38.164Z,19.70
2018-05-27T18:14:05.737Z,19.67
2018-05-27T18:16:33.284Z,19.62
2018-05-27T18:19:00.882Z,19.56
2018-05-27T18:21:28.428Z,19.47
2018-05-27T18:23:55.972Z,19.43
2018-05-27T18:26:23.701Z,19.35
2018-05-27T18:28:51.267Z,19.18
2018-05-27T18:31:18.864Z,19.24
2018-05-27T18:33:46.618Z,19.16
2018-05-27T18:36:14.212Z,19.12
2018-05-27T18:38:41.943Z,19.07
2018-05-27T18:41:09.526Z,19.14
2018-05-27T18:43:37.077Z,19.13
2018-05-27T18:46:04.701Z,19.09
2018-05-27T18:48:32.334Z,19.06
2018-05-27T18:50:59.897Z,19.01
2018-05-27T18:53:27.513Z,19.01
2018-05-27T18:55:55.576Z,18.98
2018-05-27T18:58:23.199Z,18.92
2018-05-27T19:00:50.875Z,18.93
2018-05-27T19:03:18.482Z,18.90
2018-05-27T19:05:46.068Z,18.85
2018-05-27T19:08:13.626Z,18.85
2018-05-27T19:10:41.179Z,18.80
2018-05-27T19:13:08.832Z,18.75
2018-05-27T19:15:36.480Z,18.72
2018-05-27T19:18:04.047Z,18.72
2018-05-27T19:20:31.631Z,18.63
2018-05-27T19:22:59.370Z,18.55
2018-05-27T19:25:26.937Z,18.48
2018-05-27T19:27:54.527Z,18.40
2018-05-27T19:30:22.322Z,18.36
2018-05-27T19:32:49.916Z,18.36
2018-05-27T19:35:17.468Z,18.23
2018-05-27T19:37:45.055Z,18.21
2018-05-27T19:40:12.624Z,18.19
2018-05-27T19:42:40.170Z,18.20
2018-05-27T19:45:07.757Z,18.17
2018-05-27T19:47:35.310Z,18.11
2018-05-27T19:50:02.914Z,18.05
2018-05-27T19:52:30.498Z,17.96
2018-05-27T19:54:58.079Z,17.90
2018-05-27T19:57:25.659Z,17.92
2018-05-27T19:59:53.339Z,17.83
2018-05-27T20:02:20.913Z,17.78
2018-05-27T20:04:48.522Z,17.78
2018-05-27T20:07:16.132Z,17.75
2018-05-27T20:09:43.704Z,17.73
2018-05-27T20:12:11.252Z,17.73
2018-05-27T20:14:38.992Z,17.71
2018-05-27T20:17:06.541Z,17.72
2018-05-27T20:19:34.132Z,17.67
2018-05-27T20:22:01.723Z,17.71
2018-05-27T20:24:29.294Z,17.74
2018-05-27T20:26:56.837Z,17.68
2018-05-27T20:29:24.533Z,17.79
2018-05-27T20:31:52.076Z,17.72
2018-05-27T20:34:19.641Z,17.76
2018-05-27T20:36:47.370Z,17.76
2018-05-27T20:39:14.952Z,17.85
2018-05-27T20:41:42.507Z,17.89
2018-05-27T20:44:10.202Z,17.82
2018-05-27T20:46:37.743Z,17.80
2018-05-27T20:49:05.304Z,17.84
2018-05-27T20:51:32.985Z,17.93
2018-05-27T20:54:00.555Z,17.91
2018-05-27T20:56:28.112Z,17.94
2018-05-27T20:58:55.860Z,17.94
2018-05-27T21:01:23.396Z,17.99
2018-05-27T21:03:50.945Z,18.02
2018-05-27T21:06:18.681Z,18.05
2018-05-27T21:08:46.264Z,18.11
2018-05-27T21:11:13.865Z,18.14
2018-05-27T21:13:41.549Z,18.16
2018-05-27T21:16:09.107Z,18.20
2018-05-27T21:18:36.670Z,18.12
2018-05-27T21:21:04.533Z,18.10
2018-05-27T21:23:32.082Z,18.14
2018-05-27T21:25:59.659Z,18.15
2018-05-27T21:28:27.574Z,18.11
2018-05-27T21:30:55.564Z,18.15
2018-05-27T21:33:23.099Z,18.07
2018-05-27T21:35:50.749Z,18.11
2018-05-27T21:38:18.300Z,18.12
2018-05-27T21:40:45.847Z,18.03
2018-05-27T21:43:13.417Z,18.03
2018-05-27T21:45:40.980Z,18.01
2018-05-27T21:48:08.521Z,17.98
2018-05-27T21:50:36.129Z,17.96
2018-05-27T21:53:03.692Z,17.94
2018-05-27T21:55:31.262Z,17.90
2018-05-27T21:57:58.873Z,17.90
2018-05-27T22:00:26.456Z,17.83
2018-05-27T22:02:54.003Z,17.83
2018-05-27T22:05:21.576Z,17.81
2018-05-27T22:07:49.116Z,17.75
2018-05-27T22:10:16.670Z,17.67
2018-05-27T22:12:44.402Z,17.71
2018-05-27T22:15:11.956Z,17.72
2018-05-27T22:17:39.519Z,17.75
2018-05-27T22:20:07.244Z,17.72
2018-05-27T22:22:34.790Z,17.66
2018-05-27T22:25:02.342Z,17.66
2018-05-27T22:27:30.139Z,17.63
2018-05-27T22:29:57.681Z,17.65
2018-05-27T22:32:25.228Z,17.55
2018-05-27T22:34:52.833Z,17.49
2018-05-27T22:37:20.376Z,17.39
2018-05-27T22:39:47.928Z,17.31
2018-05-27T22:42:15.653Z,17.25
2018-05-27T22:44:43.190Z,17.23
2018-05-27T22:47:10.727Z,17.18
2018-05-27T22:49:38.612Z,17.13
2018-05-27T22:52:06.169Z,17.09
2018-05-27T22:54:33.708Z,17.08
2018-05-27T22:57:01.296Z,17.08
2018-05-27T22:59:28.839Z,17.10
2018-05-27T23:01:56.395Z,17.10
2018-05-27T23:04:24.301Z,17.08
2018-05-27T23:06:51.840Z,17.06
2018-05-27T23:09:19.397Z,17.03
2018-05-27T23:11:47.002Z,17.10
2018-05-27T23:14:14.540Z,17.11
2018-05-27T23:16:42.153Z,17.07
2018-05-27T23:19:09.714Z,17.07
2018-05-27T23:21:37.264Z,17.03
2018-05-27T23:24:04.833Z,17.00
2018-05-27T23:26:32.367Z,16.99
2018-05-27T23:28:59.923Z,16.97
2018-05-27T23:31:27.501Z,16.98
2018-05-27T23:33:55.048Z,16.97
2018-05-27T23:36:22.583Z,16.98
2018-05-27T23:38:50.159Z,16.92
2018-05-27T23:41:17.714Z,16.90
2018-05-27T23:43:45.242Z,16.88
2018-05-27T23:46:12.807Z,16.83
2018-05-27T23:48:40.416Z,16.79
2018-05-27T23:51:07.965Z,16.69
2018-05-27T23:53:35.544Z,16.63
2018-05-27T23:56:03.095Z,16.55
2018-05-27T23:58:30.650Z,16.50
